Terminal Aerodrome Forecast
Issued by NWS

Home | Current Version | Previous Version | Text Only | Print | Product List | Glossary On
Versions: 1 2 3 4 5 6 7 8 9 10 11 12 13 14 15 16 17 18 19 20 21 22 23
000
FTUS45 KBYZ 221842 AAA
TAFLVM
TAF AMD
KLVM 221842Z 2219/2318 08015G22KT P6SM -RA SCT006 BKN012 OVC040
      TEMPO 2219/2221 BKN005 OVC040
     FM222100 08015G22KT P6SM -RA SCT010 BKN022 OVC060
     FM230200 08015KT P6SM -DZ SCT003 OVC010=

USA.gov is the U.S. government's official web portal to all federal, state and local government web resources and services.